Terminal Aerodrome Forecast
Issued by NWS

Home | Current Version | Previous Version | Text Only | Print | Product List | Glossary On
Versions: 1 2 3 4 5 6 7 8 9 10 11 12 13 14 15 16 17 18 19 20
658
FTUS41 KAKQ 282003 AAA
TAFPHF
TAF AMD
KPHF 282003Z 2820/2918 12013KT P6SM BKN020
     FM282100 12012KT P6SM VCTS OVC025CB
     FM282300 14005KT 6SM -SHRA BR OVC030
     FM291400 12009KT P6SM OVC070=

USA.gov is the U.S. government's official web portal to all federal, state and local government web resources and services.